Time;durP1;ratioP1;P1;durP2;ratioP2;P2;SDS_P1;SDS_P2;PMS_P1;PMS_P2;Temp;Humidity;BMP_temperature;BMP_pressure;BME280_temperature;BME280_humidity;BME280_pressure;Samples;Min_cycle;Max_cycle;Signal;HPM_P1;HPM_P2
2022/05/13 00:00:22;;;;;;;7.20;5.03;;;13.70;72.50;;;;;;1958006;72;21019;-60
2022/05/13 00:02:52;;;;;;;4.80;3.77;;;13.60;72.20;;;;;;1957972;73;21014;-60
2022/05/13 00:05:22;;;;;;;6.47;4.50;;;13.60;72.40;;;;;;1958167;72;21088;-60
2022/05/13 00:07:52;;;;;;;7.15;4.00;;;13.60;72.40;;;;;;1958128;73;21026;-60
2022/05/13 00:10:24;;;;;;;7.47;4.05;;;13.60;72.50;;;;;;1958048;73;21072;-60
2022/05/13 00:12:53;;;;;;;5.95;3.50;;;13.60;72.30;;;;;;1958004;73;21079;-60
2022/05/13 00:15:25;;;;;;;7.90;3.37;;;13.60;72.60;;;;;;1958084;73;21022;-60
2022/05/13 00:17:55;;;;;;;8.08;4.37;;;13.60;72.60;;;;;;1958109;73;20998;-60
2022/05/13 00:20:25;;;;;;;8.75;4.00;;;13.60;72.40;;;;;;1958136;73;21076;-60
2022/05/13 00:22:57;;;;;;;5.47;3.77;;;13.60;72.40;;;;;;1957985;73;21017;-60
2022/05/13 00:25:29;;;;;;;7.45;4.35;;;13.60;72.30;;;;;;1958183;73;21522;-60
2022/05/13 00:28:00;;;;;;;10.80;4.42;;;13.60;72.40;;;;;;1958090;73;21030;-60
2022/05/13 00:30:31;;;;;;;8.15;3.77;;;13.60;72.90;;;;;;1957991;73;21112;-60
2022/05/13 00:33:01;;;;;;;7.05;4.00;;;13.60;72.30;;;;;;1958049;73;21029;-59
2022/05/13 00:35:30;;;;;;;4.90;3.00;;;13.60;72.60;;;;;;1958260;73;21084;-60
2022/05/13 00:38:00;;;;;;;9.03;4.08;;;13.60;72.50;;;;;;1958108;73;21017;-60
2022/05/13 00:40:30;;;;;;;10.05;4.00;;;13.50;72.20;;;;;;1958042;73;21023;-60
2022/05/13 00:43:01;;;;;;;5.33;4.40;;;13.50;72.20;;;;;;1958092;73;21030;-60
2022/05/13 00:45:36;;;;;;;6.17;3.95;;;13.50;72.30;;;;;;1957923;73;21033;-60
2022/05/13 00:48:02;;;;;;;7.78;4.08;;;13.50;72.20;;;;;;1956776;73;21041;-60
2022/05/13 00:50:34;;;;;;;7.33;3.77;;;13.50;72.20;;;;;;1958178;73;21037;-60
2022/05/13 00:53:04;;;;;;;6.90;3.75;;;13.50;72.20;;;;;;1958246;73;21030;-60
2022/05/13 00:55:39;;;;;;;4.80;4.03;;;13.50;72.20;;;;;;1958086;73;21075;-60
2022/05/13 00:58:11;;;;;;;5.22;3.72;;;13.50;72.20;;;;;;1958174;73;21508;-60
2022/05/13 01:00:41;;;;;;;5.25;3.60;;;13.50;72.20;;;;;;1958063;73;21409;-60
2022/05/13 01:03:12;;;;;;;6.70;3.83;;;13.50;72.20;;;;;;1958183;73;21061;-60
2022/05/13 01:05:46;;;;;;;8.53;4.00;;;13.40;72.30;;;;;;1958082;73;21022;-60
2022/05/13 01:08:16;;;;;;;4.78;3.87;;;13.40;72.60;;;;;;1958453;73;21033;-60
2022/05/13 01:10:46;;;;;;;5.08;3.95;;;13.40;72.70;;;;;;1958134;73;21084;-60
2022/05/13 01:13:20;;;;;;;4.15;3.50;;;13.40;72.70;;;;;;1958230;73;21050;-60
2022/05/13 01:15:49;;;;;;;5.55;4.15;;;13.40;72.50;;;;;;1958093;73;21069;-60
2022/05/13 01:18:31;;;;;;;5.15;3.72;;;13.40;72.40;;;;;;1958273;73;21049;-60
2022/05/13 01:21:01;;;;;;;5.03;3.25;;;13.40;72.40;;;;;;1958168;73;21069;-60
2022/05/13 01:23:33;;;;;;;6.85;3.85;;;13.40;72.40;;;;;;1958098;73;21041;-60
2022/05/13 01:26:11;;;;;;;3.85;3.17;;;13.40;72.40;;;;;;1958167;73;21022;-60
2022/05/13 01:28:43;;;;;;;5.40;3.70;;;13.40;72.60;;;;;;1958154;73;21010;-60
2022/05/13 01:31:15;;;;;;;6.42;4.03;;;13.40;72.60;;;;;;1958103;73;21553;-60
2022/05/13 01:33:44;;;;;;;4.45;3.33;;;13.40;72.40;;;;;;1958165;73;21018;-60
2022/05/13 01:36:13;;;;;;;11.10;4.03;;;13.40;72.30;;;;;;1958080;73;21018;-60
2022/05/13 01:38:43;;;;;;;7.03;3.30;;;13.40;72.10;;;;;;1958191;73;21456;-60
2022/05/13 01:41:14;;;;;;;4.80;3.30;;;13.40;72.10;;;;;;1958052;73;20994;-60
2022/05/13 01:43:45;;;;;;;5.20;3.50;;;13.40;71.90;;;;;;1958238;73;21105;-60
2022/05/13 01:46:15;;;;;;;4.05;3.55;;;13.40;71.70;;;;;;1958050;73;21018;-61
2022/05/13 01:48:44;;;;;;;4.10;3.22;;;13.40;71.50;;;;;;1958236;73;21093;-60
2022/05/13 01:51:14;;;;;;;4.47;3.42;;;13.40;71.50;;;;;;1958160;73;21088;-60
2022/05/13 01:53:43;;;;;;;7.25;3.87;;;13.40;71.40;;;;;;1958191;73;21072;-60
2022/05/13 01:56:13;;;;;;;4.20;3.42;;;13.40;71.30;;;;;;1958184;72;20997;-61
2022/05/13 01:58:42;;;;;;;4.78;2.83;;;13.30;71.20;;;;;;1958161;73;21022;-61
2022/05/13 02:01:12;;;;;;;5.00;3.27;;;13.40;71.30;;;;;;1958037;73;21091;-61
2022/05/13 02:03:44;;;;;;;5.17;3.30;;;13.30;71.70;;;;;;1958037;73;21038;-60
2022/05/13 02:06:16;;;;;;;6.58;2.92;;;13.30;71.10;;;;;;1958238;73;21083;-61
2022/05/13 02:08:45;;;;;;;6.08;2.87;;;13.30;71.00;;;;;;1958215;73;21076;-60
2022/05/13 02:11:14;;;;;;;5.83;3.25;;;13.30;71.10;;;;;;1958210;73;21018;-60
2022/05/13 02:13:44;;;;;;;6.58;3.20;;;13.30;71.00;;;;;;1958118;73;21068;-61
2022/05/13 02:16:37;;;;;;;4.33;2.67;;;13.30;71.10;;;;;;1958115;73;21421;-61
2022/05/13 02:19:07;;;;;;;5.08;3.00;;;13.40;71.20;;;;;;1796667;80;21077;-61
2022/05/13 02:21:36;;;;;;;4.08;2.83;;;13.40;71.20;;;;;;1796683;80;21116;-61
2022/05/13 02:24:06;;;;;;;4.45;2.80;;;13.50;71.10;;;;;;1796665;80;21049;-61
2022/05/13 02:26:35;;;;;;;2.75;2.50;;;13.50;71.00;;;;;;1796711;80;21050;-61
2022/05/13 02:29:06;;;;;;;10.85;3.33;;;13.50;71.00;;;;;;1796790;80;21057;-61
2022/05/13 02:31:35;;;;;;;5.80;4.00;;;13.60;71.10;;;;;;1796756;80;21053;-61
2022/05/13 02:34:04;;;;;;;4.80;2.62;;;13.70;71.10;;;;;;1796666;80;21104;-61
2022/05/13 02:36:34;;;;;;;5.58;3.42;;;13.90;70.50;;;;;;1796747;80;21033;-61
2022/05/13 02:39:03;;;;;;;7.00;3.02;;;14.00;70.20;;;;;;1796711;80;21061;-61
2022/05/13 02:41:34;;;;;;;4.72;3.08;;;14.00;70.00;;;;;;1796646;80;21062;-61
2022/05/13 02:44:03;;;;;;;5.92;3.70;;;14.00;70.10;;;;;;1796746;80;21030;-61
2022/05/13 02:46:33;;;;;;;6.33;3.37;;;14.00;70.10;;;;;;1796655;80;21057;-61
2022/05/13 02:49:02;;;;;;;5.67;3.27;;;14.10;70.20;;;;;;1796764;80;21504;-61
2022/05/13 02:51:32;;;;;;;7.70;3.47;;;14.00;70.50;;;;;;1796677;80;21209;-61
2022/05/13 02:54:01;;;;;;;5.45;3.20;;;14.00;70.70;;;;;;1796744;80;21049;-62
2022/05/13 02:56:31;;;;;;;8.70;3.02;;;14.00;70.90;;;;;;1796586;80;21053;-61
2022/05/13 02:59:00;;;;;;;5.75;3.72;;;13.90;71.00;;;;;;1796630;80;21053;-62
2022/05/13 03:01:30;;;;;;;5.22;3.02;;;13.90;71.20;;;;;;1796693;80;21060;-61
2022/05/13 03:03:59;;;;;;;3.72;3.00;;;13.90;71.20;;;;;;1796676;80;21111;-61
2022/05/13 03:06:29;;;;;;;4.08;3.33;;;13.90;71.20;;;;;;1796562;80;21111;-61
2022/05/13 03:08:58;;;;;;;4.35;3.15;;;13.90;71.10;;;;;;1796624;80;21057;-61
2022/05/13 03:11:28;;;;;;;4.08;3.17;;;14.00;71.30;;;;;;1796593;80;21057;-61
2022/05/13 03:13:57;;;;;;;6.42;3.10;;;14.10;71.20;;;;;;1796747;80;21170;-61
2022/05/13 03:16:27;;;;;;;4.53;3.45;;;14.10;71.10;;;;;;1796714;80;21116;-61
2022/05/13 03:18:59;;;;;;;7.08;3.10;;;14.10;71.20;;;;;;1820094;78;21147;-61
2022/05/13 03:21:28;;;;;;;8.43;3.85;;;14.20;71.10;;;;;;1828040;78;21069;-61
2022/05/13 03:23:59;;;;;;;6.03;3.27;;;14.20;71.10;;;;;;1827880;78;21109;-61
2022/05/13 03:26:28;;;;;;;12.07;3.35;;;14.30;71.00;;;;;;1827901;78;21025;-61
2022/05/13 03:28:57;;;;;;;7.47;4.15;;;14.30;70.80;;;;;;1827907;78;21026;-61
2022/05/13 03:31:26;;;;;;;4.90;3.35;;;14.40;70.60;;;;;;1827924;78;21045;-61
2022/05/13 03:33:55;;;;;;;5.65;3.25;;;14.40;70.40;;;;;;1827999;78;21049;-61
2022/05/13 03:36:25;;;;;;;9.85;3.70;;;14.50;69.90;;;;;;1827938;78;21045;-61
2022/05/13 03:38:54;;;;;;;7.00;3.10;;;14.50;69.60;;;;;;1828002;78;21025;-61
2022/05/13 03:41:23;;;;;;;4.50;3.05;;;14.70;69.30;;;;;;1827904;78;21491;-61
2022/05/13 03:43:52;;;;;;;8.55;3.42;;;14.70;69.10;;;;;;1827862;78;21124;-61
2022/05/13 03:46:22;;;;;;;3.77;2.83;;;14.80;68.70;;;;;;1827893;78;21139;-61
2022/05/13 03:48:51;;;;;;;9.30;2.50;;;14.90;68.40;;;;;;1827912;78;21038;-61
2022/05/13 03:51:21;;;;;;;7.12;2.60;;;14.90;66.90;;;;;;1827860;78;21045;-61
2022/05/13 03:53:51;;;;;;;8.58;2.80;;;15.00;67.10;;;;;;1827957;78;21080;-61
2022/05/13 03:56:20;;;;;;;3.47;2.55;;;15.10;67.20;;;;;;1827901;78;21057;-61
2022/05/13 03:58:49;;;;;;;7.22;3.37;;;15.10;66.70;;;;;;1828050;78;21131;-61
2022/05/13 04:01:19;;;;;;;7.08;2.98;;;15.20;66.70;;;;;;1827892;78;21057;-61
2022/05/13 04:03:49;;;;;;;5.53;3.20;;;15.30;66.00;;;;;;1827977;78;21144;-61
2022/05/13 04:09:06;;;;;;;7.50;2.52;;;15.40;65.90;;;;;;1828050;78;21068;-61
2022/05/13 04:11:38;;;;;;;8.08;2.62;;;15.40;65.60;;;;;;1827994;78;21053;-61
2022/05/13 04:16:57;;;;;;;5.33;2.42;;;15.70;64.70;;;;;;1827975;78;21108;-61
2022/05/13 04:19:27;;;;;;;10.72;3.42;;;15.80;64.20;;;;;;1827754;78;21092;-61
2022/05/13 04:21:56;;;;;;;8.33;3.08;;;15.80;63.40;;;;;;1827752;78;21144;-61
2022/05/13 04:24:25;;;;;;;16.67;3.45;;;15.90;63.30;;;;;;1827801;78;21127;-61
2022/05/13 04:26:55;;;;;;;7.83;3.08;;;15.90;62.60;;;;;;1827821;78;21152;-61
2022/05/13 04:29:24;;;;;;;12.47;2.75;;;16.00;62.80;;;;;;1827905;78;21120;-61
2022/05/13 04:32:14;;;;;;;3.27;2.87;;;16.10;62.50;;;;;;1827851;78;21029;-61
2022/05/13 04:34:43;;;;;;;59.85;5.33;;;16.20;62.10;;;;;;1835556;78;21111;-60
2022/05/13 04:37:13;;;;;;;8.43;3.02;;;16.30;61.40;;;;;;1835660;78;21012;-61
2022/05/13 04:39:42;;;;;;;3.70;2.15;;;16.30;61.10;;;;;;1835663;78;21106;-61
2022/05/13 04:44:59;;;;;;;5.42;2.95;;;16.50;60.40;;;;;;1835549;78;21106;-61
2022/05/13 04:50:15;;;;;;;4.53;2.55;;;16.60;60.70;;;;;;1835550;77;21047;-60
2022/05/13 04:52:45;;;;;;;7.30;2.17;;;16.70;60.50;;;;;;1835579;78;21522;-60
2022/05/13 04:55:14;;;;;;;5.62;2.83;;;16.80;59.90;;;;;;1835565;77;21035;-60
2022/05/13 04:57:44;;;;;;;9.00;2.47;;;16.90;59.10;;;;;;1835604;78;21011;-60
2022/05/13 05:00:14;;;;;;;9.15;3.05;;;17.00;59.00;;;;;;1835751;78;21114;-61
2022/05/13 05:02:44;;;;;;;12.68;3.00;;;17.00;59.00;;;;;;1835597;78;21040;-61
2022/05/13 05:05:14;;;;;;;4.92;2.40;;;17.10;57.70;;;;;;1835544;78;21034;-61
2022/05/13 05:07:43;;;;;;;2.60;1.80;;;17.10;57.40;;;;;;1835615;78;21036;-61
2022/05/13 05:10:13;;;;;;;8.38;2.70;;;17.20;56.50;;;;;;1835504;77;21090;-61
2022/05/13 05:12:43;;;;;;;6.17;2.47;;;17.20;56.30;;;;;;1835559;78;21039;-61
2022/05/13 05:15:13;;;;;;;6.42;2.20;;;17.20;56.20;;;;;;1835502;78;21098;-61
2022/05/13 05:17:42;;;;;;;4.22;2.85;;;17.30;56.60;;;;;;1835535;78;21016;-60
2022/05/13 05:20:11;;;;;;;3.60;2.25;;;17.40;56.60;;;;;;1835549;78;21035;-60
2022/05/13 05:22:41;;;;;;;10.75;3.15;;;17.50;56.00;;;;;;1835694;78;21094;-61
2022/05/13 05:25:11;;;;;;;2.80;2.20;;;17.50;56.40;;;;;;1835709;78;21071;-61
2022/05/13 05:27:41;;;;;;;11.28;2.50;;;17.60;55.90;;;;;;1835733;78;21011;-60
2022/05/13 05:30:11;;;;;;;21.65;7.90;;;17.70;55.60;;;;;;1835692;78;21098;-60
2022/05/13 05:32:41;;;;;;;4.87;2.90;;;17.80;54.20;;;;;;1835590;78;21015;-60
2022/05/13 05:35:14;;;;;;;8.90;2.35;;;17.80;53.60;;;;;;1835351;77;21067;-60
2022/05/13 05:37:43;;;;;;;6.70;1.70;;;17.90;53.90;;;;;;1766042;81;21073;-60
2022/05/13 05:40:13;;;;;;;4.40;2.25;;;17.90;53.20;;;;;;1835325;78;21111;-60
2022/05/13 05:42:43;;;;;;;3.50;2.22;;;18.00;53.60;;;;;;1766129;81;21053;-60
2022/05/13 05:45:14;;;;;;;2.85;2.12;;;18.00;53.90;;;;;;1835583;78;21102;-60
2022/05/13 05:47:44;;;;;;;7.65;2.52;;;18.10;53.50;;;;;;1766151;81;21132;-60
2022/05/13 05:50:16;;;;;;;6.83;3.10;;;18.20;53.40;;;;;;1835421;78;21036;-60
2022/05/13 05:52:45;;;;;;;4.58;2.65;;;18.30;53.00;;;;;;1765901;81;21082;-60
2022/05/13 05:58:12;;;;;;;13.08;2.58;;;18.40;52.70;;;;;;1766018;81;21061;-60
2022/05/13 06:00:44;;;;;;;7.08;2.62;;;18.50;51.30;;;;;;1835342;78;21523;-60
2022/05/13 06:03:13;;;;;;;3.30;2.00;;;18.50;51.30;;;;;;1765890;81;21135;-60
2022/05/13 06:05:44;;;;;;;4.90;2.30;;;18.60;51.50;;;;;;1835272;78;21032;-60
2022/05/13 06:08:13;;;;;;;6.92;2.37;;;18.60;50.70;;;;;;1765925;81;21111;-60
2022/05/13 06:10:43;;;;;;;19.50;3.70;;;18.70;50.50;;;;;;1835218;78;21051;-60
2022/05/13 06:13:14;;;;;;;5.35;1.92;;;18.70;50.10;;;;;;1765870;81;21058;-60
2022/05/13 06:15:43;;;;;;;4.17;1.75;;;18.80;49.90;;;;;;1835202;78;21499;-60
2022/05/13 06:18:13;;;;;;;5.55;2.60;;;18.80;49.60;;;;;;1765837;81;21082;-60
2022/05/13 06:20:42;;;;;;;11.73;2.33;;;18.80;49.80;;;;;;1835382;78;21094;-60
2022/05/13 06:23:12;;;;;;;9.03;2.20;;;18.90;48.80;;;;;;1765719;81;21207;-60
2022/05/13 06:25:41;;;;;;;6.65;2.12;;;18.90;48.90;;;;;;1835172;78;21024;-60
2022/05/13 06:28:11;;;;;;;9.15;2.30;;;19.00;48.90;;;;;;1765891;80;21053;-60
2022/05/13 06:30:40;;;;;;;4.83;2.10;;;19.00;48.90;;;;;;1835326;78;21095;-60
2022/05/13 06:33:10;;;;;;;3.90;1.95;;;19.00;48.60;;;;;;1765832;81;21193;-60
2022/05/13 06:35:41;;;;;;;16.65;2.77;;;19.10;48.40;;;;;;1835527;77;21130;-60
2022/05/13 06:38:20;;;;;;;7.42;2.30;;;19.10;48.50;;;;;;1835584;77;21012;-60
2022/05/13 06:40:46;;;;;;;3.72;2.30;;;19.10;48.40;;;;;;1835656;77;21137;-60
2022/05/13 06:43:15;;;;;;;5.55;1.70;;;19.20;48.00;;;;;;1835507;77;21086;-60
2022/05/13 06:45:45;;;;;;;7.37;3.52;;;19.30;46.80;;;;;;1835518;78;21071;-60
2022/05/13 06:48:15;;;;;;;10.00;2.50;;;19.30;47.20;;;;;;1835671;78;21052;-60
2022/05/13 06:50:46;;;;;;;13.25;2.30;;;19.30;46.50;;;;;;1835524;78;21035;-60
2022/05/13 06:53:16;;;;;;;9.58;2.30;;;19.30;46.50;;;;;;1835510;78;21085;-60
2022/05/13 06:55:45;;;;;;;6.03;2.30;;;19.30;46.30;;;;;;1835645;78;21028;-60
2022/05/13 06:58:15;;;;;;;6.55;2.58;;;19.40;46.60;;;;;;1835595;78;21035;-60
2022/05/13 07:00:45;;;;;;;11.85;2.72;;;19.50;46.30;;;;;;1835629;78;21474;-60
2022/05/13 07:03:15;;;;;;;6.62;2.90;;;19.60;46.40;;;;;;1835562;78;21129;-60
2022/05/13 07:05:44;;;;;;;6.00;2.37;;;19.60;46.30;;;;;;1835608;77;21016;-60
2022/05/13 07:08:14;;;;;;;5.62;2.20;;;19.70;46.20;;;;;;1835496;78;21040;-60
2022/05/13 07:10:44;;;;;;;10.93;2.27;;;19.70;45.60;;;;;;1835498;78;21196;-60
2022/05/13 07:13:15;;;;;;;5.17;2.08;;;19.70;45.50;;;;;;1835685;77;21040;-60
2022/05/13 07:15:46;;;;;;;3.75;1.90;;;19.80;45.90;;;;;;1835442;78;21008;-60
2022/05/13 07:18:15;;;;;;;5.33;2.25;;;19.80;45.00;;;;;;1835519;77;21036;-60
2022/05/13 07:20:45;;;;;;;8.93;2.08;;;19.80;46.00;;;;;;1835510;78;21082;-60
2022/05/13 07:23:15;;;;;;;9.60;2.50;;;19.80;45.70;;;;;;1835514;78;21016;-60
2022/05/13 07:25:44;;;;;;;2.90;1.60;;;19.90;45.70;;;;;;1835503;78;21036;-60
2022/05/13 07:28:13;;;;;;;9.53;2.17;;;19.90;45.40;;;;;;1835608;77;21091;-60
2022/05/13 07:30:43;;;;;;;6.87;1.98;;;20.00;45.40;;;;;;1840168;77;21036;-59
2022/05/13 07:33:13;;;;;;;8.83;2.58;;;20.00;45.30;;;;;;1843869;77;21075;-60
2022/05/13 07:35:43;;;;;;;6.83;2.30;;;20.00;46.10;;;;;;1854286;75;21503;-60
2022/05/13 07:38:12;;;;;;;2.75;1.60;;;20.00;45.50;;;;;;1838957;77;21041;-60
2022/05/13 07:43:29;;;;;;;6.62;2.00;;;20.10;45.70;;;;;;1854906;77;21431;-61
2022/05/13 07:45:58;;;;;;;8.03;2.40;;;20.10;45.80;;;;;;1837856;77;21086;-61
2022/05/13 07:48:28;;;;;;;4.65;2.10;;;20.20;46.50;;;;;;1845945;77;21107;-60
2022/05/13 07:50:57;;;;;;;8.03;2.98;;;20.30;46.00;;;;;;1855239;77;21088;-60
2022/05/13 07:56:18;;;;;;;6.33;2.22;;;20.30;45.00;;;;;;1913240;74;21045;-60
2022/05/13 07:58:48;;;;;;;7.15;2.30;;;20.30;45.60;;;;;;1908819;74;21017;-60
2022/05/13 08:01:18;;;;;;;5.00;2.10;;;20.30;45.40;;;;;;1903437;74;21021;-60
2022/05/13 08:03:49;;;;;;;3.58;2.05;;;20.40;45.90;;;;;;1910899;74;21088;-60
2022/05/13 08:06:18;;;;;;;4.90;1.77;;;20.40;46.00;;;;;;1901393;74;21102;-60
2022/05/13 08:08:53;;;;;;;4.72;2.40;;;20.50;45.20;;;;;;1896893;74;20998;-60
2022/05/13 08:11:19;;;;;;;13.70;2.12;;;20.50;44.90;;;;;;1911445;74;21013;-60
2022/05/13 08:13:49;;;;;;;6.53;2.10;;;20.50;45.70;;;;;;1897887;74;21076;-60
2022/05/13 08:16:21;;;;;;;6.55;2.15;;;20.60;45.80;;;;;;1908016;74;21095;-60
2022/05/13 08:18:50;;;;;;;4.17;1.87;;;20.60;45.80;;;;;;1868785;74;21025;-60
2022/05/13 08:21:19;;;;;;;7.05;2.00;;;20.70;45.00;;;;;;1913608;74;21077;-60
2022/05/13 08:23:50;;;;;;;5.17;1.77;;;20.70;44.60;;;;;;1914696;74;21068;-60
2022/05/13 08:26:19;;;;;;;12.30;3.30;;;20.70;44.70;;;;;;1904444;74;21061;-60
2022/05/13 08:28:48;;;;;;;5.58;2.47;;;20.60;44.70;;;;;;1891416;74;21034;-60
2022/05/13 08:31:18;;;;;;;8.48;1.90;;;20.70;44.80;;;;;;1890338;74;21096;-60
2022/05/13 08:33:47;;;;;;;8.10;2.72;;;20.60;44.80;;;;;;1890337;74;21035;-58
2022/05/13 08:36:17;;;;;;;4.05;1.67;;;20.70;43.90;;;;;;1890525;76;21089;-58
2022/05/13 08:38:47;;;;;;;11.45;2.42;;;20.70;44.10;;;;;;1890393;74;21062;-58
2022/05/13 08:41:28;;;;;;;5.25;2.00;;;20.70;43.90;;;;;;1904034;74;21069;-58
2022/05/13 08:44:00;;;;;;;6.75;2.40;;;20.70;43.90;;;;;;1914679;74;21024;-58
2022/05/13 08:46:35;;;;;;;5.42;2.37;;;20.70;43.90;;;;;;1923427;74;21088;-58
2022/05/13 08:49:22;;;;;;;4.05;2.05;;;20.70;44.50;;;;;;1923850;74;21029;-58
2022/05/13 08:53:06;;;;;;;7.05;2.45;;;20.80;44.50;;;;;;1924612;74;21025;-58
2022/05/13 08:54:36;;;;;;;;;;;20.90;44.60;;;;;;1931557;73;21021;-57
2022/05/13 08:57:08;;;;;;;9.20;2.10;;;21.00;42.50;;;;;;1928341;74;20098;-58
2022/05/13 08:59:48;;;;;;;13.78;2.58;;;21.00;43.60;;;;;;1928234;74;21017;-58
2022/05/13 09:02:21;;;;;;;3.80;1.87;;;20.90;43.70;;;;;;1900293;74;21045;-58
2022/05/13 09:05:04;;;;;;;3.67;2.05;;;20.80;43.90;;;;;;1928196;74;21013;-58
2022/05/13 09:07:34;;;;;;;17.20;2.50;;;20.80;43.70;;;;;;1928318;74;21029;-58
2022/05/13 09:10:10;;;;;;;7.65;2.08;;;20.80;44.40;;;;;;1926964;74;21124;-58
2022/05/13 09:12:45;;;;;;;7.40;2.98;;;20.80;43.70;;;;;;1927848;74;21073;-57
2022/05/13 09:15:17;;;;;;;;;;;20.80;44.30;;;;;;1929500;74;21460;-57
2022/05/13 09:19:09;;;;;;;5.20;2.00;;;20.70;43.40;;;;;;1972748;72;25846;-56
2022/05/13 09:21:41;;;;;;;18.02;2.90;;;20.60;44.10;;;;;;1948424;73;21094;-57
2022/05/13 09:24:11;;;;;;;7.70;2.30;;;20.60;44.20;;;;;;1948377;73;21543;-57
2022/05/13 09:26:42;;;;;;;5.47;1.72;;;20.60;44.10;;;;;;1948469;73;21066;-57
2022/05/13 09:29:13;;;;;;;6.45;2.15;;;20.60;44.20;;;;;;1948472;73;21037;-58
2022/05/13 09:31:54;;;;;;;10.78;2.92;;;20.60;44.80;;;;;;1948367;73;21070;-59
2022/05/13 09:34:42;;;;;;;5.03;2.37;;;20.60;45.70;;;;;;1826261;76;21107;-59
2022/05/13 09:37:14;;;;;;;6.35;2.50;;;20.70;45.30;;;;;;1859046;76;21139;-57
2022/05/13 09:39:46;;;;;;;5.47;1.82;;;20.90;45.40;;;;;;1858297;77;21045;-58
2022/05/13 09:42:38;;;;;;;4.95;2.05;;;21.00;45.00;;;;;;1858812;76;21602;-57
2022/05/13 09:45:18;;;;;;;6.72;2.25;;;21.10;44.60;;;;;;1858867;77;21096;-57
2022/05/13 09:48:09;;;;;;;6.55;3.08;;;21.20;44.60;;;;;;1858942;76;21189;-57
2022/05/13 09:50:44;;;;;;;9.78;2.20;;;21.20;44.90;;;;;;1859038;77;21033;-57
2022/05/13 09:53:25;;;;;;;5.00;2.90;;;21.30;44.90;;;;;;1857301;76;21076;-57
2022/05/13 09:56:01;;;;;;;3.37;2.00;;;21.40;44.70;;;;;;1858811;76;21033;-56
2022/05/13 09:58:33;;;;;;;4.25;2.02;;;21.50;44.30;;;;;;1859125;77;21091;-55
2022/05/13 10:01:11;;;;;;;18.80;2.67;;;21.50;43.20;;;;;;1860220;77;21050;-52
2022/05/13 10:03:42;;;;;;;4.15;1.87;;;21.40;43.50;;;;;;1861196;77;21097;-56
2022/05/13 10:06:19;;;;;;;3.30;2.00;;;21.40;43.80;;;;;;1861299;77;21037;-59
2022/05/13 10:14:38;;;;;;;3.98;1.85;;;21.30;43.60;;;;;;1861312;77;21132;-55
2022/05/13 10:17:10;;;;;;;6.70;1.77;;;21.30;43.20;;;;;;1861203;77;21037;-57
2022/05/13 10:19:48;;;;;;;3.87;1.92;;;21.20;42.90;;;;;;1861383;77;21596;-58
2022/05/13 10:22:29;;;;;;;8.10;2.20;;;21.30;42.50;;;;;;1861339;77;21096;-56
2022/05/13 10:25:20;;;;;;;5.72;2.27;;;21.20;42.60;;;;;;1860672;77;21013;-56
2022/05/13 10:28:07;;;;;;;6.85;2.00;;;21.20;42.90;;;;;;1861302;77;21185;-51
2022/05/13 10:30:45;;;;;;;11.65;2.12;;;21.30;42.70;;;;;;1859109;77;21112;-55
2022/05/13 10:33:24;;;;;;;4.35;1.60;;;21.20;42.60;;;;;;1860599;77;21041;-56
2022/05/13 10:36:14;;;;;;;7.90;3.75;;;21.20;43.20;;;;;;1860734;77;21050;-55
2022/05/13 10:38:46;;;;;;;2.15;1.65;;;21.10;42.60;;;;;;1860572;77;21115;-56
2022/05/13 10:41:47;;;;;;;5.83;2.20;;;21.20;42.60;;;;;;1860525;77;21547;-54
2022/05/13 10:44:34;;;;;;;6.60;3.58;;;21.20;42.80;;;;;;1860760;77;21033;-57
2022/05/13 10:47:18;;;;;;;5.08;2.12;;;21.20;42.90;;;;;;1860642;76;21547;-56
2022/05/13 10:49:48;;;;;;;3.37;1.75;;;21.20;43.00;;;;;;1859102;76;21085;-54
2022/05/13 10:52:35;;;;;;;5.75;2.70;;;21.20;42.80;;;;;;1860552;77;21006;-57
2022/05/13 10:55:13;;;;;;;6.03;2.50;;;21.20;43.00;;;;;;1860572;77;21171;-54
2022/05/13 10:57:57;;;;;;;5.08;1.92;;;21.20;43.30;;;;;;1860616;77;21049;-56
2022/05/13 11:00:32;;;;;;;9.65;3.40;;;21.20;43.20;;;;;;1860508;77;21108;-56
2022/05/13 11:03:01;;;;;;;;;;;21.20;43.60;;;;;;1860155;77;21109;-55
2022/05/13 11:05:55;;;;;;;6.55;2.15;;;21.20;43.00;;;;;;1860379;77;20169;-54
2022/05/13 11:08:46;;;;;;;6.03;1.87;;;21.20;43.20;;;;;;1860778;77;21124;-56
2022/05/13 11:11:30;;;;;;;4.20;1.90;;;21.30;43.50;;;;;;1860234;77;21105;-57
2022/05/13 11:14:02;;;;;;;3.62;1.67;;;21.30;43.30;;;;;;1860030;77;21054;-56
2022/05/13 11:16:51;;;;;;;4.62;1.80;;;21.30;43.90;;;;;;1860029;76;21163;-58
2022/05/13 11:19:47;;;;;;;5.08;2.20;;;21.30;43.60;;;;;;1859454;77;21088;-56
2022/05/13 11:22:38;;;;;;;8.38;1.85;;;21.30;43.00;;;;;;1854284;76;21112;-57
2022/05/13 11:28:21;;;;;;;3.95;2.30;;;21.40;43.30;;;;;;1854437;76;21139;-57
2022/05/13 11:30:58;;;;;;;5.05;2.08;;;21.30;43.30;;;;;;1853448;76;21621;-54
2022/05/13 11:33:50;;;;;;;4.55;2.25;;;21.30;43.10;;;;;;1853818;76;21128;-55
2022/05/13 11:36:35;;;;;;;4.35;1.80;;;21.40;43.00;;;;;;1842768;77;21113;-56
2022/05/13 11:39:12;;;;;;;4.65;1.95;;;21.40;42.30;;;;;;1842471;78;21069;-55
2022/05/13 11:41:56;;;;;;;9.55;2.55;;;21.40;42.40;;;;;;1842780;77;21038;-55
2022/05/13 11:44:46;;;;;;;7.53;3.08;;;21.40;42.90;;;;;;1842657;78;21014;-54
2022/05/13 11:47:30;;;;;;;8.30;2.10;;;21.50;43.10;;;;;;1835644;77;21085;-56
2022/05/13 11:50:00;;;;;;;9.38;2.90;;;21.50;43.10;;;;;;1843063;77;21109;-57
2022/05/13 11:52:38;;;;;;;6.80;1.87;;;21.50;43.20;;;;;;1842613;78;21109;-57
2022/05/13 11:55:17;;;;;;;5.65;2.05;;;21.50;42.60;;;;;;1842831;77;21112;-57
2022/05/13 11:57:53;;;;;;;8.18;2.20;;;21.50;42.50;;;;;;1842719;77;21179;-56
2022/05/13 12:00:33;;;;;;;6.62;2.50;;;21.50;42.90;;;;;;1842809;77;21037;-55
2022/05/13 12:03:12;;;;;;;7.87;2.80;;;21.50;42.90;;;;;;1842771;78;21115;-55
2022/05/13 12:05:50;;;;;;;7.10;2.42;;;21.60;42.80;;;;;;1843581;78;21038;-57
2022/05/13 12:08:31;;;;;;;8.83;3.05;;;21.50;42.80;;;;;;1843366;77;21135;-56
2022/05/13 12:11:06;;;;;;;4.33;2.20;;;21.50;43.10;;;;;;1843484;77;21069;-55
2022/05/13 12:13:53;;;;;;;;;;;21.60;42.80;;;;;;1846239;78;21581;-55
2022/05/13 12:16:28;;;;;;;6.08;2.30;;;21.60;41.00;;;;;;1841591;78;20309;-56
2022/05/13 12:19:19;;;;;;;7.87;3.42;;;21.60;42.30;;;;;;1843490;78;21066;-55
2022/05/13 12:22:24;;;;;;;8.85;2.12;;;21.60;41.90;;;;;;1843096;77;21058;-55
2022/05/13 12:25:00;;;;;;;20.08;3.40;;;21.60;41.60;;;;;;1843590;77;21148;-55
2022/05/13 12:27:32;;;;;;;2.85;1.70;;;21.60;41.10;;;;;;1843562;77;21476;-56
2022/05/13 12:30:07;;;;;;;4.80;2.47;;;21.50;41.50;;;;;;1843591;78;21128;-55
2022/05/13 12:32:45;;;;;;;2.92;1.92;;;21.40;41.30;;;;;;1843501;77;21037;-56
2022/05/13 12:38:26;;;;;;;7.45;1.80;;;21.50;41.30;;;;;;1837069;78;21057;-56
2022/05/13 12:41:10;;;;;;;5.28;2.35;;;21.40;41.10;;;;;;1837077;78;21039;-56
2022/05/13 12:43:55;;;;;;;5.05;2.17;;;21.40;42.10;;;;;;1834962;78;21073;-56
2022/05/13 12:46:46;;;;;;;4.47;1.90;;;21.40;41.80;;;;;;1813085;78;21112;-56
2022/05/13 12:49:24;;;;;;;5.15;1.85;;;21.40;42.10;;;;;;1836950;78;21042;-56
2022/05/13 12:52:29;;;;;;;2.77;1.85;;;21.30;41.50;;;;;;1836971;78;21488;-56
2022/05/13 12:55:19;;;;;;;9.38;2.20;;;21.30;41.60;;;;;;1837054;77;21082;-55
2022/05/13 12:58:06;;;;;;;3.00;2.08;;;21.40;41.60;;;;;;1836964;78;21124;-56
2022/05/13 13:00:47;;;;;;;7.20;2.40;;;21.40;41.40;;;;;;1837037;78;21058;-56
2022/05/13 13:03:18;;;;;;;5.87;2.45;;;21.40;41.60;;;;;;1837047;78;21112;-56
2022/05/13 13:05:57;;;;;;;2.40;1.72;;;21.40;41.30;;;;;;1836986;78;21046;-56
2022/05/13 13:08:29;;;;;;;8.58;2.67;;;21.40;41.40;;;;;;1836449;77;21062;-56
2022/05/13 13:11:18;;;;;;;5.35;4.05;;;21.40;41.60;;;;;;1834044;78;21061;-56
2022/05/13 13:13:53;;;;;;;6.10;2.10;;;21.40;41.80;;;;;;1836926;77;21058;-56
2022/05/13 13:16:22;;;;;;;;;;;21.30;41.40;;;;;;1839510;78;21038;-56
2022/05/13 13:19:06;;;;;;;4.25;1.85;;;21.30;40.60;;;;;;1836862;77;20111;-56
2022/05/13 13:21:36;;;;;;;6.45;1.90;;;21.20;41.30;;;;;;1759848;78;21150;-56
2022/05/13 13:24:16;;;;;;;5.28;2.20;;;21.20;41.60;;;;;;1836994;78;21124;-57
2022/05/13 13:26:49;;;;;;;6.00;2.37;;;21.20;41.60;;;;;;1837105;77;21548;-56
2022/05/13 13:29:26;;;;;;;3.70;2.20;;;21.20;41.10;;;;;;1837064;78;21469;-56
2022/05/13 13:31:58;;;;;;;2.35;1.70;;;21.20;41.30;;;;;;1836990;77;21042;-56
2022/05/13 13:34:44;;;;;;;4.15;1.77;;;21.20;41.30;;;;;;1837436;76;21038;-57
2022/05/13 13:37:15;;;;;;;4.70;1.87;;;21.20;41.40;;;;;;1832841;77;21094;-57
2022/05/13 13:39:44;;;;;;;3.70;1.85;;;21.20;41.10;;;;;;1836823;78;21066;-57
2022/05/13 13:42:16;;;;;;;3.50;1.87;;;21.20;41.00;;;;;;1836984;78;21086;-57
2022/05/13 13:44:47;;;;;;;8.75;2.67;;;21.10;40.80;;;;;;1837015;78;21018;-57
2022/05/13 13:47:34;;;;;;;5.58;2.15;;;21.10;40.90;;;;;;1836900;78;21042;-57
2022/05/13 13:50:06;;;;;;;3.40;1.80;;;21.10;41.30;;;;;;1836808;78;21070;-56
2022/05/13 13:52:38;;;;;;;7.47;2.20;;;21.10;41.50;;;;;;1837106;78;21108;-57